Lindsey Foss — WCC9031 — position and weather

sailwx.info

Track history (hours):
 
Tides and Currents Weather Stations Pressure Air Temp Water Temp Dewpoint Dewpoint Depression Visibility Wind Speed Wind Dir Waves Ship Positions

Lindsey Foss

Owner: FOSS MARITIME CO, SEATTLE, WA. More information available from US FCC via Universal Licensing System and Coast Guard Vessel Documentation Center.

Last reported at 2017-Oct-17 13:01 UTC. Time now 2017-Oct-17 13:02 UTC.
Position N 47°38' W 122°23'.

Length 51 m; draft 7 m.

Type: Tug. MMSI: 366767150.

Date/timePositionNaut miles runAvg speedWind from/ knotsBaromVisibWave heightAir tempDewpointWater temp
2017-Oct-17 13:01N 47°38' W 122°23'0 0.0
2017-Oct-17 12:30N 47°38' W 122°23'0 0.0
2017-Oct-17 12:01N 47°38' W 122°23'2 4.8
2017-Oct-17 11:31N 47°36' W 122°21'1 1.7
2017-Oct-17 11:00N 47°35' W 122°21'2 3.4
2017-Oct-17 10:31N 47°37' W 122°22'1 2.9
2017-Oct-17 10:00N 47°38' W 122°23'0 0.0
2017-Oct-17 09:30N 47°38' W 122°23'0 0.0
2017-Oct-17 09:00N 47°38' W 122°23'0 0.0
2017-Oct-17 08:30N 47°38' W 122°23'0 0.0
2017-Oct-17 08:00N 47°38' W 122°23'0 0.0
2017-Oct-17 07:30N 47°38' W 122°23'0 0.0
2017-Oct-17 07:01N 47°38' W 122°23'0 0.0
2017-Oct-17 06:30N 47°38' W 122°23'0 0.0
2017-Oct-17 06:00N 47°38' W 122°23'0 0.0
2017-Oct-17 05:30N 47°38' W 122°23'0 0.0
2017-Oct-17 05:00N 47°38' W 122°23'0 0.0
2017-Oct-17 04:30N 47°38' W 122°23'0 0.0
2017-Oct-17 04:00N 47°38' W 122°23'0 0.0
2017-Oct-17 03:30N 47°38' W 122°23'0 0.0
2017-Oct-17 03:00N 47°38' W 122°23'0 0.0
2017-Oct-17 02:30N 47°38' W 122°23'0 0.0
2017-Oct-17 02:00N 47°38' W 122°23'0 0.0
2017-Oct-17 01:30N 47°38' W 122°23'0 0.0
2017-Oct-17 01:00N 47°38' W 122°23'0 0.0
2017-Oct-17 00:30N 47°38' W 122°23'0 0.0
2017-Oct-17 00:00N 47°38' W 122°23'0 0.0
2017-Oct-16 23:30N 47°38' W 122°23'0 0.0
2017-Oct-16 23:00N 47°38' W 122°23'0 0.0
2017-Oct-16 22:30N 47°38' W 122°23'0 0.0
2017-Oct-16 22:00N 47°38' W 122°23'0 0.0
2017-Oct-16 21:30N 47°38' W 122°23'0 0.0
2017-Oct-16 21:00N 47°38' W 122°23'0 0.0
2017-Oct-16 20:30N 47°38' W 122°23'0 0.0
2017-Oct-16 20:00N 47°38' W 122°23'0 0.0
2017-Oct-16 19:30N 47°38' W 122°23'0 0.0
2017-Oct-16 19:00N 47°38' W 122°23'0 0.0
2017-Oct-16 18:30N 47°38' W 122°23'0 0.0
2017-Oct-16 18:00N 47°38' W 122°23'2 3.4
2017-Oct-16 17:31N 47°36' W 122°22'1 2.2
2017-Oct-16 17:00N 47°35' W 122°21'0 0.0
2017-Oct-16 16:30N 47°35' W 122°21'0 0.0
2017-Oct-16 16:00N 47°35' W 122°21'0 0.0
2017-Oct-16 15:30N 47°35' W 122°21'0 0.0
2017-Oct-16 15:00N 47°35' W 122°21'1 0.6
2017-Oct-16 14:00N 47°35' W 122°21'0 0.0
2017-Oct-16 13:30N 47°35' W 122°21'0 0.5
2017-Oct-16 13:01N 47°35' W 122°21'0 0.0
2017-Oct-16 12:30N 47°35' W 122°21'1 2.9
2017-Oct-16 12:01N 47°36' W 122°21'1 1.5
2017-Oct-16 11:30N 47°37' W 122°22'2 3.5
2017-Oct-16 11:00N 47°38' W 122°24'4 7.7
2017-Oct-16 10:30N 47°41' W 122°28'5 9.8
2017-Oct-16 10:01N 47°46' W 122°27'5 9.5
2017-Oct-16 09:31N 47°50' W 122°28'5 9.9
2017-Oct-16 09:01N 47°55' W 122°31'510.9
2017-Oct-16 08:31N 47°59' W 122°36'910.7
2017-Oct-16 07:41N 48°07' W 122°41'312.4
2017-Oct-16 07:25N 48°09' W 122°45'511.2
2017-Oct-16 06:57N 48°11' W 122°52'510.8
2017-Oct-16 06:29N 48°12' W 122°60'510.0
2017-Oct-16 06:00N 48°12' W 123°07'5 9.5
2017-Oct-16 05:30N 48°10' W 123°14'5 9.6
2017-Oct-16 05:00N 48°09' W 123°21'4 7.6
2017-Oct-16 04:30N 48°08' W 123°26'0 0.1
2017-Oct-16 03:58N 48°08' W 123°26'0 0.0
2017-Oct-16 03:25N 48°08' W 123°26'0 0.0
2017-Oct-16 02:49N 48°08' W 123°26'0 0.0
2017-Oct-16 02:10N 48°08' W 123°26'0 0.0
2017-Oct-16 01:55N 48°08' W 123°26'0 0.0
2017-Oct-16 01:28N 48°08' W 123°26'0 0.1
2017-Oct-16 00:52N 48°08' W 123°26'0 0.0
2017-Oct-16 00:25N 48°08' W 123°26'0 0.0
2017-Oct-15 23:58N 48°08' W 123°26'0 0.0
2017-Oct-15 23:22N 48°08' W 123°26'0 0.0
2017-Oct-15 22:55N 48°08' W 123°26'0 0.0
2017-Oct-15 22:22N 48°08' W 123°26'0 0.0
2017-Oct-15 21:58N 48°08' W 123°26'0 0.0
2017-Oct-15 21:22N 48°08' W 123°26'0 0.0
2017-Oct-15 20:52N 48°08' W 123°26'0 0.0
2017-Oct-15 20:28N 48°08' W 123°26'0 0.0
2017-Oct-15 19:52N 48°08' W 123°26'0 0.0
2017-Oct-15 19:28N 48°08' W 123°26'0 0.0
2017-Oct-15 18:49N 48°08' W 123°26'0 0.0
2017-Oct-15 18:28N 48°08' W 123°26'0 0.0
2017-Oct-15 17:52N 48°08' W 123°26'0 0.0
2017-Oct-15 17:25N 48°08' W 123°26'0 0.0
2017-Oct-15 16:58N 48°08' W 123°26'0 0.0
2017-Oct-15 16:25N 48°08' W 123°26'0 0.0
2017-Oct-15 15:55N 48°08' W 123°26'0 0.0
2017-Oct-15 15:22N 48°08' W 123°26'0 0.0
2017-Oct-15 14:58N 48°08' W 123°26'0 0.0
2017-Oct-15 13:58N 48°08' W 123°26'0 0.0
2017-Oct-15 13:28N 48°08' W 123°26'0 0.0
2017-Oct-15 12:55N 48°08' W 123°26'0 0.0
2017-Oct-15 12:22N 48°08' W 123°26'0 0.0
2017-Oct-15 11:52N 48°08' W 123°26'0 0.0
2017-Oct-15 11:28N 48°08' W 123°26'0 0.0
2017-Oct-15 10:55N 48°08' W 123°26'0 0.0
2017-Oct-15 10:19N 48°08' W 123°26'0 0.0
2017-Oct-15 09:46N 48°08' W 123°26'0 0.0
2017-Oct-15 09:28N 48°08' W 123°26'0 0.0
2017-Oct-15 08:52N 48°08' W 123°26'0 0.0
2017-Oct-15 08:22N 48°08' W 123°26'0 0.0
2017-Oct-15 07:49N 48°08' W 123°26'0 0.0
2017-Oct-15 07:22N 48°08' W 123°26'0 0.0
2017-Oct-15 06:58N 48°08' W 123°26'0 0.0
2017-Oct-15 06:30N 48°08' W 123°26'0 0.0
2017-Oct-15 06:00N 48°08' W 123°26'0 0.0
2017-Oct-15 05:27N 48°08' W 123°26'0 0.0
2017-Oct-15 05:00N 48°08' W 123°26'0 0.0
2017-Oct-15 04:30N 48°08' W 123°26'0 0.0
2017-Oct-15 04:00N 48°08' W 123°26'0 0.0
2017-Oct-15 03:29N 48°08' W 123°26'0 0.0
2017-Oct-15 03:00N 48°08' W 123°26'0 0.0
2017-Oct-15 02:27N 48°08' W 123°26'0 0.0
2017-Oct-15 02:00N 48°08' W 123°26'0 0.1
2017-Oct-15 01:31N 48°08' W 123°26'0 1.0
2017-Oct-15 01:01N 48°08' W 123°26'0 0.8
2017-Oct-15 00:26N 48°08' W 123°26'0 0.0
2017-Oct-14 23:56N 48°08' W 123°26'0 0.0
2017-Oct-14 23:29N 48°08' W 123°26'0 0.0
2017-Oct-14 22:59N 48°08' W 123°26'0 0.0
2017-Oct-14 22:29N 48°08' W 123°26'0 0.0
2017-Oct-14 21:53N 48°08' W 123°26'0 0.0
2017-Oct-14 21:29N 48°08' W 123°26'0 0.0
2017-Oct-14 20:59N 48°08' W 123°26'0 0.0
2017-Oct-14 20:26N 48°08' W 123°26'0 0.0
2017-Oct-14 19:59N 48°08' W 123°26'0 0.0
2017-Oct-14 19:29N 48°08' W 123°26'0 0.0
2017-Oct-14 18:53N 48°08' W 123°26'0 0.0
2017-Oct-14 18:26N 48°08' W 123°26'0 0.0
2017-Oct-14 17:59N 48°08' W 123°26'0 0.0
2017-Oct-14 17:29N 48°08' W 123°26'0 0.0
2017-Oct-14 16:56N 48°08' W 123°26'0 0.0
2017-Oct-14 16:29N 48°08' W 123°26'0 0.0
2017-Oct-14 15:59N 48°08' W 123°26'0 0.0
2017-Oct-14 15:29N 48°08' W 123°26'0 0.0
2017-Oct-14 14:56N 48°08' W 123°26'0 0.0
2017-Oct-14 14:23N 48°08' W 123°26'0 0.0
2017-Oct-14 13:56N 48°08' W 123°26'0 0.0
2017-Oct-14 13:26N 48°08' W 123°26'0 0.0
2017-Oct-14 12:53N 48°08' W 123°26'0 0.0
2017-Oct-14 12:29N 48°08' W 123°26'0 0.0
2017-Oct-14 11:59N 48°08' W 123°26'0 0.0
2017-Oct-14 11:29N 48°08' W 123°26'0 0.0
2017-Oct-14 10:59N 48°08' W 123°26'0 0.0
2017-Oct-14 10:29N 48°08' W 123°26'0 0.0
2017-Oct-14 09:59N 48°08' W 123°26'0 0.0
2017-Oct-14 09:26N 48°08' W 123°26'0 0.0
2017-Oct-14 08:59N 48°08' W 123°26'0 0.0
2017-Oct-14 08:29N 48°08' W 123°26'0 0.0
2017-Oct-14 07:59N 48°08' W 123°26'0 0.0
2017-Oct-14 07:26N 48°08' W 123°26'0 0.0
2017-Oct-14 06:56N 48°08' W 123°26'0 0.0
2017-Oct-14 06:23N 48°08' W 123°26'0 0.0
2017-Oct-14 05:59N 48°08' W 123°26'0 0.0
2017-Oct-14 04:56N 48°08' W 123°26'2 4.8
2017-Oct-14 04:31N 48°08' W 123°23'510.3
2017-Oct-14 04:00N 48°11' W 123°17'510.5
2017-Oct-14 03:30N 48°15' W 123°11'611.1
2017-Oct-14 03:00N 48°18' W 123°04'713.5
2017-Oct-14 02:29N 48°22' W 122°55'713.4
2017-Oct-14 01:58N 48°26' W 122°47'511.8
2017-Oct-14 01:30N 48°31' W 122°45'611.8
2017-Oct-14 01:00N 48°37' W 122°45'610.9
2017-Oct-14 00:29N 48°42' W 122°45'510.3
2017-Oct-13 23:58N 48°48' W 122°46'4 4.6
2017-Oct-13 23:06N 48°52' W 122°46'0 0.3
2017-Oct-13 22:59N 48°52' W 122°46'0 0.5
2017-Oct-13 22:30N 48°51' W 122°46'510.1
2017-Oct-13 22:00N 48°46' W 122°45'611.3
2017-Oct-13 21:30N 48°41' W 122°42'611.2
2017-Oct-13 21:00N 48°38' W 122°35'611.2
2017-Oct-13 20:30N 48°43' W 122°31'2 0.1
2017-Oct-13 03:03N 48°45' W 122°30'0 0.0
2017-Oct-13 02:51N 48°45' W 122°30'0 0.0
2017-Oct-12 22:39N 48°45' W 122°30'0 0.0
2017-Oct-12 19:03N 48°45' W 122°30'0 0.0
2017-Oct-12 19:00N 48°45' W 122°30'0 0.0
2017-Oct-12 17:51N 48°45' W 122°30'0 0.0
2017-Oct-12 15:39N 48°45' W 122°30'0 0.0
2017-Oct-12 15:09N 48°45' W 122°30'0 0.0
2017-Oct-12 14:51N 48°45' W 122°30'0 0.0
2017-Oct-12 14:21N 48°45' W 122°30'0 0.0
2017-Oct-12 13:45N 48°45' W 122°30'0 0.0
2017-Oct-12 12:21N 48°45' W 122°30'0 0.0
2017-Oct-12 11:44N 48°45' W 122°30'0 1.4
2017-Oct-12 11:30N 48°44' W 122°30'510.0
2017-Oct-12 11:00N 48°40' W 122°33'4 7.3
2017-Oct-12 10:31N 48°39' W 122°39'510.9
2017-Oct-12 10:01N 48°44' W 122°44'611.0
2017-Oct-12 09:29N 48°49' W 122°45'2 4.9
2017-Oct-12 08:59N 48°52' W 122°46'0 0.0
2017-Oct-12 08:29N 48°52' W 122°46'1 2.2
2017-Oct-12 07:58N 48°51' W 122°45'2 4.0
2017-Oct-12 07:30N 48°49' W 122°44'1 0.7
2017-Oct-12 06:42N 48°49' W 122°43'0 0.0
2017-Oct-12 05:05N 48°49' W 122°43'0 0.1
2017-Oct-12 04:59N 48°49' W 122°43'0 0.0
2017-Oct-12 03:29N 48°49' W 122°43'0 0.0
2017-Oct-12 02:59N 48°49' W 122°43'0 0.1
2017-Oct-12 02:29N 48°49' W 122°43'0 0.1
2017-Oct-12 01:59N 48°49' W 122°43'0 0.0
2017-Oct-12 01:22N 48°49' W 122°43'0 0.0
2017-Oct-12 01:00N 48°49' W 122°43'0 0.0
2017-Oct-12 00:28N 48°49' W 122°43'0 0.0
2017-Oct-11 23:55N 48°49' W 122°43'0 0.0
2017-Oct-11 23:19N 48°49' W 122°43'0 0.1
2017-Oct-11 23:00N 48°49' W 122°43'0 0.0
2017-Oct-11 22:30N 48°49' W 122°43'0 0.0
2017-Oct-11 22:00N 48°49' W 122°43'0 0.0
2017-Oct-11 21:30N 48°49' W 122°43'0 0.0
2017-Oct-11 20:58N 48°49' W 122°43'1 1.1
2017-Oct-11 20:17N 48°50' W 122°43'1 2.7
2017-Oct-11 19:48N 48°48' W 122°44'310.5
2017-Oct-11 19:30N 48°45' W 122°45'611.6
2017-Oct-11 19:00N 48°40' W 122°43'611.5
2017-Oct-11 18:31N 48°34' W 122°45'611.9
2017-Oct-11 18:00N 48°28' W 122°44'611.8
2017-Oct-11 17:30N 48°23' W 122°49'25 1.4
2017-Oct-10 23:58N 48°45' W 122°30'0 0.0
2017-Oct-10 23:25N 48°45' W 122°30'0 0.0
2017-Oct-10 22:58N 48°45' W 122°30'0 0.0
2017-Oct-10 22:28N 48°45' W 122°30'0 0.0
2017-Oct-10 21:58N 48°45' W 122°30'0 0.0
2017-Oct-10 21:28N 48°45' W 122°30'0 0.0
2017-Oct-10 20:58N 48°45' W 122°30'0 0.0
2017-Oct-10 20:28N 48°45' W 122°30'0 0.0
2017-Oct-10 19:55N 48°45' W 122°30'0 0.0
2017-Oct-10 19:28N 48°45' W 122°30'0 0.0
2017-Oct-10 18:58N 48°45' W 122°30'0 0.0
2017-Oct-10 18:28N 48°45' W 122°30'0 0.0
2017-Oct-10 17:58N 48°45' W 122°30'0 0.0
2017-Oct-10 17:28N 48°45' W 122°30'0 0.0
2017-Oct-10 16:58N 48°45' W 122°30'0 0.0
2017-Oct-10 16:28N 48°45' W 122°30'0 0.0
2017-Oct-10 15:58N 48°45' W 122°30'0 0.0
2017-Oct-10 15:22N 48°45' W 122°30'0 0.0
2017-Oct-10 14:58N 48°45' W 122°30'0 0.0
2017-Oct-10 13:58N 48°45' W 122°30'0 0.0
2017-Oct-10 13:28N 48°45' W 122°30'0 0.0
2017-Oct-10 12:58N 48°45' W 122°30'0 0.0
2017-Oct-10 12:25N 48°45' W 122°30'0 0.0
2017-Oct-10 11:58N 48°45' W 122°30'0 0.0
2017-Oct-10 11:28N 48°45' W 122°30'0 0.0
2017-Oct-10 10:58N 48°45' W 122°30'0 0.0
2017-Oct-10 10:28N 48°45' W 122°30'0 0.0
2017-Oct-10 10:00N 48°45' W 122°30'0 0.0
2017-Oct-10 09:31N 48°45' W 122°30'0 0.0
2017-Oct-10 09:00N 48°45' W 122°30'0 0.0
2017-Oct-10 08:30N 48°45' W 122°30'0 0.0
2017-Oct-10 08:00N 48°45' W 122°30'0 0.0
2017-Oct-10 07:30N 48°45' W 122°30'0 0.0
2017-Oct-10 07:00N 48°45' W 122°30'0 0.0
2017-Oct-10 06:30N 48°45' W 122°30'0 0.0
2017-Oct-10 06:00N 48°45' W 122°30'0 0.0
2017-Oct-10 05:30N 48°45' W 122°30'0 0.0
2017-Oct-10 05:00N 48°45' W 122°30'0 0.0
2017-Oct-10 04:30N 48°45' W 122°30'0 0.0
2017-Oct-10 04:00N 48°45' W 122°30'0 0.0
2017-Oct-10 03:30N 48°45' W 122°30'0 0.0
2017-Oct-10 03:00N 48°45' W 122°30'0 0.0
2017-Oct-10 02:30N 48°45' W 122°30'0 0.1
2017-Oct-10 02:00N 48°45' W 122°30'0 0.0
2017-Oct-10 01:31N 48°45' W 122°30'0 0.1
2017-Oct-10 01:00N 48°45' W 122°30'0 0.0
2017-Oct-10 00:30N 48°45' W 122°30'0 0.0
2017-Oct-10 00:00N 48°45' W 122°30'0 0.0
2017-Oct-09 23:30N 48°45' W 122°30'0 0.0
2017-Oct-09 23:00N 48°45' W 122°30'0 0.0
2017-Oct-09 22:30N 48°45' W 122°30'0 0.0
2017-Oct-09 22:00N 48°45' W 122°30'0 0.0
2017-Oct-09 21:31N 48°45' W 122°30'5 9.6
2017-Oct-09 21:00N 48°40' W 122°33'511.0
2017-Oct-09 20:30N 48°36' W 122°38'5 9.6
2017-Oct-09 20:00N 48°32' W 122°41'5 9.5
2017-Oct-09 19:31N 48°28' W 122°44'510.4
2017-Oct-09 19:00N 48°24' W 122°50'910.8
2017-Oct-09 18:10N 48°18' W 123°01'310.8
2017-Oct-09 17:53N 48°17' W 123°05'410.6
2017-Oct-09 17:28N 48°15' W 123°10'710.7
2017-Oct-09 16:52N 48°11' W 123°18'410.7
2017-Oct-09 16:30N 48°08' W 123°23'2 4.6
2017-Oct-09 16:00N 48°08' W 123°26'0 0.9
2017-Oct-09 15:31N 48°08' W 123°26'0 0.0
2017-Oct-09 14:59N 48°08' W 123°26'0 0.0
2017-Oct-09 14:26N 48°08' W 123°26'0 0.0
2017-Oct-09 14:00N 48°08' W 123°26'0 0.0
2017-Oct-09 13:30N 48°08' W 123°26'0 0.0
2017-Oct-09 13:00N 48°08' W 123°26'0 0.0
2017-Oct-09 12:28N 48°08' W 123°26'0 0.0
2017-Oct-09 12:00N 48°08' W 123°26'0 0.0
2017-Oct-09 11:30N 48°08' W 123°26'0 0.0
2017-Oct-09 11:00N 48°08' W 123°26'0 0.0
2017-Oct-09 10:28N 48°08' W 123°26'0 0.0
2017-Oct-09 10:00N 48°08' W 123°26'3 6.3
2017-Oct-09 09:30N 48°09' W 123°22'611.2
2017-Oct-09 09:01N 48°13' W 123°16'611.0
2017-Oct-09 08:30N 48°16' W 123°09'611.6
2017-Oct-09 08:00N 48°19' W 123°01'511.2
2017-Oct-09 07:30N 48°22' W 122°54'611.8
2017-Oct-09 07:01N 48°25' W 122°47'713.4
2017-Oct-09 06:30N 48°31' W 122°41'5 9.6
2017-Oct-09 06:00N 48°31' W 122°34'0 0.7
2017-Oct-09 05:30N 48°31' W 122°34'0 0.7
2017-Oct-09 05:00N 48°31' W 122°34'0 0.5
2017-Oct-09 04:30N 48°31' W 122°34'0 1.0
2017-Oct-09 04:00N 48°31' W 122°35'0 0.9
2017-Oct-09 03:30N 48°31' W 122°35'2 3.7
2017-Oct-09 03:00N 48°31' W 122°38'4 8.1
2017-Oct-09 02:30N 48°29' W 122°43'510.7
2017-Oct-09 02:01N 48°25' W 122°48'510.2
2017-Oct-09 01:31N 48°22' W 122°54'710.6
2017-Oct-09 00:53N 48°18' W 123°02'410.2
2017-Oct-09 00:30N 48°16' W 123°07'710.0
2017-Oct-08 23:50N 48°12' W 123°15'410.7
2017-Oct-08 23:30N 48°10' W 123°20'5 9.3
2017-Oct-08 23:00N 48°08' W 123°26'1 1.0
2017-Oct-08 22:30N 48°08' W 123°25'3 5.9
2017-Oct-08 22:01N 48°08' W 123°21'713.0
2017-Oct-08 21:30N 48°13' W 123°13'713.5
2017-Oct-08 21:00N 48°17' W 123°06'713.4
2017-Oct-08 20:29N 48°21' W 122°57'613.2
2017-Oct-08 20:01N 48°24' W 122°49'612.6
2017-Oct-08 19:30N 48°30' W 122°44'612.9
2017-Oct-08 19:00N 48°36' W 122°45'612.1
2017-Oct-08 18:30N 48°42' W 122°44'612.6
2017-Oct-08 18:00N 48°49' W 122°44'1 2.0
2017-Oct-08 17:31N 48°50' W 122°43'1 0.7
2017-Oct-08 16:25N 48°49' W 122°43'0 0.0
2017-Oct-08 15:40N 48°49' W 122°43'0 0.2
2017-Oct-08 15:25N 48°49' W 122°43'0 0.0
2017-Oct-08 15:00N 48°49' W 122°43'0 0.0
2017-Oct-08 14:30N 48°49' W 122°43'2 2.8
2017-Oct-08 13:57N 48°50' W 122°45'2 3.0
2017-Oct-08 13:27N 48°52' W 122°46'0 0.5
2017-Oct-08 13:00N 48°52' W 122°46'1 1.1
2017-Oct-08 12:30N 48°51' W 122°45'3 1.7
2017-Oct-08 10:53N 48°49' W 122°43'0 0.0
2017-Oct-08 10:29N 48°49' W 122°43'0 0.0
2017-Oct-08 09:56N 48°49' W 122°43'0 0.0
2017-Oct-08 09:26N 48°49' W 122°43'0 0.0
2017-Oct-08 08:47N 48°49' W 122°43'0 0.0
2017-Oct-08 08:29N 48°49' W 122°43'0 0.0
2017-Oct-08 07:47N 48°49' W 122°43'0 0.0
2017-Oct-08 07:29N 48°49' W 122°43'0 0.1
2017-Oct-08 06:50N 48°49' W 122°43'0 0.0
2017-Oct-08 06:20N 48°49' W 122°43'0 0.0
2017-Oct-08 05:59N 48°49' W 122°43'0 0.0
2017-Oct-08 04:37N 48°49' W 122°43'0 0.0
2017-Oct-08 04:28N 48°49' W 122°43'1 1.4
2017-Oct-08 04:00N 48°50' W 122°43'0 0.1
2017-Oct-08 03:30N 48°49' W 122°43'1 2.9
2017-Oct-08 03:00N 48°48' W 122°44'4 7.9
2017-Oct-08 02:30N 48°44' W 122°46'611.3
2017-Oct-08 02:00N 48°39' W 122°44'510.4
2017-Oct-08 01:30N 48°34' W 122°45'510.6
2017-Oct-08 01:01N 48°28' W 122°45'611.3
2017-Oct-08 00:30N 48°24' W 122°49'713.8
2017-Oct-07 23:59N 48°20' W 122°58'713.4
2017-Oct-07 23:26N 48°16' W 123°08'1 2.8
2017-Oct-07 22:57N 48°15' W 123°10'511.8
2017-Oct-07 22:30N 48°12' W 123°16'611.9
2017-Oct-07 22:00N 48°08' W 123°23'2 4.1
2017-Oct-07 21:30N 48°08' W 123°26'0 0.5
2017-Oct-07 21:00N 48°08' W 123°26'0 0.5
2017-Oct-07 20:26N 48°08' W 123°26'0 0.0
2017-Oct-07 20:00N 48°08' W 123°26'0 0.0
2017-Oct-07 19:30N 48°08' W 123°26'0 0.1
2017-Oct-07 19:00N 48°08' W 123°26'0 0.6
2017-Oct-07 18:30N 48°08' W 123°26'1 1.9
2017-Oct-07 18:00N 48°08' W 123°25'1 1.1
2017-Oct-07 17:30N 48°08' W 123°24'0 0.6
2017-Oct-07 17:00N 48°08' W 123°24'4 8.3
2017-Oct-07 16:30N 48°09' W 123°18'611.3
2017-Oct-07 16:00N 48°12' W 123°11'611.1
2017-Oct-07 15:30N 48°12' W 123°02'612.8
2017-Oct-07 15:00N 48°12' W 122°53'1311.4
2017-Oct-07 13:53N 48°04' W 122°38'411.1
2017-Oct-07 13:30N 48°00' W 122°36'510.9
2017-Oct-07 13:00N 47°56' W 122°30'510.6
2017-Oct-07 12:30N 47°51' W 122°27'  
Track history (hours):
 
Tides and Currents Weather Stations Pressure Air Temp Water Temp Dewpoint Dewpoint Depression Visibility Wind Speed Wind Dir Waves Ship Positions

Lindsey Foss

Owner: FOSS MARITIME CO, SEATTLE, WA. More information available from US FCC via Universal Licensing System and Coast Guard Vessel Documentation Center.

Last reported at 2017-Oct-17 13:01 UTC. Time now 2017-Oct-17 13:02 UTC.
Position N 47°38' W 122°23'.

Length 51 m; draft 7 m.

Type: Tug. MMSI: 366767150.

Date/timePositionNaut miles runAvg speedWind from/ knotsBaromVisibWave heightAir tempDewpointWater temp
2017-Oct-17 13:01N 47°38' W 122°23'0 0.0
2017-Oct-17 12:30N 47°38' W 122°23'0 0.0
2017-Oct-17 12:01N 47°38' W 122°23'2 4.8
2017-Oct-17 11:31N 47°36' W 122°21'1 1.7
2017-Oct-17 11:00N 47°35' W 122°21'2 3.4
2017-Oct-17 10:31N 47°37' W 122°22'1 2.9
2017-Oct-17 10:00N 47°38' W 122°23'0 0.0
2017-Oct-17 09:30N 47°38' W 122°23'0 0.0
2017-Oct-17 09:00N 47°38' W 122°23'0 0.0
2017-Oct-17 08:30N 47°38' W 122°23'0 0.0
2017-Oct-17 08:00N 47°38' W 122°23'0 0.0
2017-Oct-17 07:30N 47°38' W 122°23'0 0.0
2017-Oct-17 07:01N 47°38' W 122°23'0 0.0
2017-Oct-17 06:30N 47°38' W 122°23'0 0.0
2017-Oct-17 06:00N 47°38' W 122°23'0 0.0
2017-Oct-17 05:30N 47°38' W 122°23'0 0.0
2017-Oct-17 05:00N 47°38' W 122°23'0 0.0
2017-Oct-17 04:30N 47°38' W 122°23'0 0.0
2017-Oct-17 04:00N 47°38' W 122°23'0 0.0
2017-Oct-17 03:30N 47°38' W 122°23'0 0.0
2017-Oct-17 03:00N 47°38' W 122°23'0 0.0
2017-Oct-17 02:30N 47°38' W 122°23'0 0.0
2017-Oct-17 02:00N 47°38' W 122°23'0 0.0
2017-Oct-17 01:30N 47°38' W 122°23'0 0.0
2017-Oct-17 01:00N 47°38' W 122°23'0 0.0
2017-Oct-17 00:30N 47°38' W 122°23'0 0.0
2017-Oct-17 00:00N 47°38' W 122°23'0 0.0
2017-Oct-16 23:30N 47°38' W 122°23'0 0.0
2017-Oct-16 23:00N 47°38' W 122°23'0 0.0
2017-Oct-16 22:30N 47°38' W 122°23'0 0.0
2017-Oct-16 22:00N 47°38' W 122°23'0 0.0
2017-Oct-16 21:30N 47°38' W 122°23'0 0.0
2017-Oct-16 21:00N 47°38' W 122°23'0 0.0
2017-Oct-16 20:30N 47°38' W 122°23'0 0.0
2017-Oct-16 20:00N 47°38' W 122°23'0 0.0
2017-Oct-16 19:30N 47°38' W 122°23'0 0.0
2017-Oct-16 19:00N 47°38' W 122°23'0 0.0
2017-Oct-16 18:30N 47°38' W 122°23'0 0.0
2017-Oct-16 18:00N 47°38' W 122°23'2 3.4
2017-Oct-16 17:31N 47°36' W 122°22'1 2.2
2017-Oct-16 17:00N 47°35' W 122°21'0 0.0
2017-Oct-16 16:30N 47°35' W 122°21'0 0.0
2017-Oct-16 16:00N 47°35' W 122°21'0 0.0
2017-Oct-16 15:30N 47°35' W 122°21'0 0.0
2017-Oct-16 15:00N 47°35' W 122°21'1 0.6
2017-Oct-16 14:00N 47°35' W 122°21'0 0.0
2017-Oct-16 13:30N 47°35' W 122°21'0 0.5
2017-Oct-16 13:01N 47°35' W 122°21'0 0.0
2017-Oct-16 12:30N 47°35' W 122°21'1 2.9
2017-Oct-16 12:01N 47°36' W 122°21'1 1.5
2017-Oct-16 11:30N 47°37' W 122°22'2 3.5
2017-Oct-16 11:00N 47°38' W 122°24'4 7.7
2017-Oct-16 10:30N 47°41' W 122°28'5 9.8
2017-Oct-16 10:01N 47°46' W 122°27'5 9.5
2017-Oct-16 09:31N 47°50' W 122°28'5 9.9
2017-Oct-16 09:01N 47°55' W 122°31'510.9
2017-Oct-16 08:31N 47°59' W 122°36'910.7
2017-Oct-16 07:41N 48°07' W 122°41'312.4
2017-Oct-16 07:25N 48°09' W 122°45'511.2
2017-Oct-16 06:57N 48°11' W 122°52'510.8
2017-Oct-16 06:29N 48°12' W 122°60'510.0
2017-Oct-16 06:00N 48°12' W 123°07'5 9.5
2017-Oct-16 05:30N 48°10' W 123°14'5 9.6
2017-Oct-16 05:00N 48°09' W 123°21'4 7.6
2017-Oct-16 04:30N 48°08' W 123°26'0 0.1
2017-Oct-16 03:58N 48°08' W 123°26'0 0.0
2017-Oct-16 03:25N 48°08' W 123°26'0 0.0
2017-Oct-16 02:49N 48°08' W 123°26'0 0.0
2017-Oct-16 02:10N 48°08' W 123°26'0 0.0
2017-Oct-16 01:55N 48°08' W 123°26'0 0.0
2017-Oct-16 01:28N 48°08' W 123°26'0 0.1
2017-Oct-16 00:52N 48°08' W 123°26'0 0.0
2017-Oct-16 00:25N 48°08' W 123°26'0 0.0
2017-Oct-15 23:58N 48°08' W 123°26'0 0.0
2017-Oct-15 23:22N 48°08' W 123°26'0 0.0
2017-Oct-15 22:55N 48°08' W 123°26'0 0.0
2017-Oct-15 22:22N 48°08' W 123°26'0 0.0
2017-Oct-15 21:58N 48°08' W 123°26'0 0.0
2017-Oct-15 21:22N 48°08' W 123°26'0 0.0
2017-Oct-15 20:52N 48°08' W 123°26'0 0.0
2017-Oct-15 20:28N 48°08' W 123°26'0 0.0
2017-Oct-15 19:52N 48°08' W 123°26'0 0.0
2017-Oct-15 19:28N 48°08' W 123°26'0 0.0
2017-Oct-15 18:49N 48°08' W 123°26'0 0.0
2017-Oct-15 18:28N 48°08' W 123°26'0 0.0
2017-Oct-15 17:52N 48°08' W 123°26'0 0.0
2017-Oct-15 17:25N 48°08' W 123°26'0 0.0
2017-Oct-15 16:58N 48°08' W 123°26'0 0.0
2017-Oct-15 16:25N 48°08' W 123°26'0 0.0
2017-Oct-15 15:55N 48°08' W 123°26'0 0.0
2017-Oct-15 15:22N 48°08' W 123°26'0 0.0
2017-Oct-15 14:58N 48°08' W 123°26'0 0.0
2017-Oct-15 13:58N 48°08' W 123°26'0 0.0
2017-Oct-15 13:28N 48°08' W 123°26'0 0.0
2017-Oct-15 12:55N 48°08' W 123°26'0 0.0
2017-Oct-15 12:22N 48°08' W 123°26'0 0.0
2017-Oct-15 11:52N 48°08' W 123°26'0 0.0
2017-Oct-15 11:28N 48°08' W 123°26'0 0.0
2017-Oct-15 10:55N 48°08' W 123°26'0 0.0
2017-Oct-15 10:19N 48°08' W 123°26'0 0.0
2017-Oct-15 09:46N 48°08' W 123°26'0 0.0
2017-Oct-15 09:28N 48°08' W 123°26'0 0.0
2017-Oct-15 08:52N 48°08' W 123°26'0 0.0
2017-Oct-15 08:22N 48°08' W 123°26'0 0.0
2017-Oct-15 07:49N 48°08' W 123°26'0 0.0
2017-Oct-15 07:22N 48°08' W 123°26'0 0.0
2017-Oct-15 06:58N 48°08' W 123°26'0 0.0
2017-Oct-15 06:30N 48°08' W 123°26'0 0.0
2017-Oct-15 06:00N 48°08' W 123°26'0 0.0
2017-Oct-15 05:27N 48°08' W 123°26'0 0.0
2017-Oct-15 05:00N 48°08' W 123°26'0 0.0
2017-Oct-15 04:30N 48°08' W 123°26'0 0.0
2017-Oct-15 04:00N 48°08' W 123°26'0 0.0
2017-Oct-15 03:29N 48°08' W 123°26'0 0.0
2017-Oct-15 03:00N 48°08' W 123°26'0 0.0
2017-Oct-15 02:27N 48°08' W 123°26'0 0.0
2017-Oct-15 02:00N 48°08' W 123°26'0 0.1
2017-Oct-15 01:31N 48°08' W 123°26'0 1.0
2017-Oct-15 01:01N 48°08' W 123°26'0 0.8
2017-Oct-15 00:26N 48°08' W 123°26'0 0.0
2017-Oct-14 23:56N 48°08' W 123°26'0 0.0
2017-Oct-14 23:29N 48°08' W 123°26'0 0.0
2017-Oct-14 22:59N 48°08' W 123°26'0 0.0
2017-Oct-14 22:29N 48°08' W 123°26'0 0.0
2017-Oct-14 21:53N 48°08' W 123°26'0 0.0
2017-Oct-14 21:29N 48°08' W 123°26'0 0.0
2017-Oct-14 20:59N 48°08' W 123°26'0 0.0
2017-Oct-14 20:26N 48°08' W 123°26'0 0.0
2017-Oct-14 19:59N 48°08' W 123°26'0 0.0
2017-Oct-14 19:29N 48°08' W 123°26'0 0.0
2017-Oct-14 18:53N 48°08' W 123°26'0 0.0
2017-Oct-14 18:26N 48°08' W 123°26'0 0.0
2017-Oct-14 17:59N 48°08' W 123°26'0 0.0
2017-Oct-14 17:29N 48°08' W 123°26'0 0.0
2017-Oct-14 16:56N 48°08' W 123°26'0 0.0
2017-Oct-14 16:29N 48°08' W 123°26'0 0.0
2017-Oct-14 15:59N 48°08' W 123°26'0 0.0
2017-Oct-14 15:29N 48°08' W 123°26'0 0.0
2017-Oct-14 14:56N 48°08' W 123°26'0 0.0
2017-Oct-14 14:23N 48°08' W 123°26'0 0.0
2017-Oct-14 13:56N 48°08' W 123°26'0 0.0
2017-Oct-14 13:26N 48°08' W 123°26'0 0.0
2017-Oct-14 12:53N 48°08' W 123°26'0 0.0
2017-Oct-14 12:29N 48°08' W 123°26'0 0.0
2017-Oct-14 11:59N 48°08' W 123°26'0 0.0
2017-Oct-14 11:29N 48°08' W 123°26'0 0.0
2017-Oct-14 10:59N 48°08' W 123°26'0 0.0
2017-Oct-14 10:29N 48°08' W 123°26'0 0.0
2017-Oct-14 09:59N 48°08' W 123°26'0 0.0
2017-Oct-14 09:26N 48°08' W 123°26'0 0.0
2017-Oct-14 08:59N 48°08' W 123°26'0 0.0
2017-Oct-14 08:29N 48°08' W 123°26'0 0.0
2017-Oct-14 07:59N 48°08' W 123°26'0 0.0
2017-Oct-14 07:26N 48°08' W 123°26'0 0.0
2017-Oct-14 06:56N 48°08' W 123°26'0 0.0
2017-Oct-14 06:23N 48°08' W 123°26'0 0.0
2017-Oct-14 05:59N 48°08' W 123°26'0 0.0
2017-Oct-14 04:56N 48°08' W 123°26'2 4.8
2017-Oct-14 04:31N 48°08' W 123°23'510.3
2017-Oct-14 04:00N 48°11' W 123°17'510.5
2017-Oct-14 03:30N 48°15' W 123°11'611.1
2017-Oct-14 03:00N 48°18' W 123°04'713.5
2017-Oct-14 02:29N 48°22' W 122°55'713.4
2017-Oct-14 01:58N 48°26' W 122°47'511.8
2017-Oct-14 01:30N 48°31' W 122°45'611.8
2017-Oct-14 01:00N 48°37' W 122°45'610.9
2017-Oct-14 00:29N 48°42' W 122°45'510.3
2017-Oct-13 23:58N 48°48' W 122°46'4 4.6
2017-Oct-13 23:06N 48°52' W 122°46'0 0.3
2017-Oct-13 22:59N 48°52' W 122°46'0 0.5
2017-Oct-13 22:30N 48°51' W 122°46'510.1
2017-Oct-13 22:00N 48°46' W 122°45'611.3
2017-Oct-13 21:30N 48°41' W 122°42'611.2
2017-Oct-13 21:00N 48°38' W 122°35'611.2
2017-Oct-13 20:30N 48°43' W 122°31'2 0.1
2017-Oct-13 03:03N 48°45' W 122°30'0 0.0
2017-Oct-13 02:51N 48°45' W 122°30'0 0.0
2017-Oct-12 22:39N 48°45' W 122°30'0 0.0
2017-Oct-12 19:03N 48°45' W 122°30'0 0.0
2017-Oct-12 19:00N 48°45' W 122°30'0 0.0
2017-Oct-12 17:51N 48°45' W 122°30'0 0.0
2017-Oct-12 15:39N 48°45' W 122°30'0 0.0
2017-Oct-12 15:09N 48°45' W 122°30'0 0.0
2017-Oct-12 14:51N 48°45' W 122°30'0 0.0
2017-Oct-12 14:21N 48°45' W 122°30'0 0.0
2017-Oct-12 13:45N 48°45' W 122°30'0 0.0
2017-Oct-12 12:21N 48°45' W 122°30'0 0.0
2017-Oct-12 11:44N 48°45' W 122°30'0 1.4
2017-Oct-12 11:30N 48°44' W 122°30'510.0
2017-Oct-12 11:00N 48°40' W 122°33'4 7.3
2017-Oct-12 10:31N 48°39' W 122°39'510.9
2017-Oct-12 10:01N 48°44' W 122°44'611.0
2017-Oct-12 09:29N 48°49' W 122°45'2 4.9
2017-Oct-12 08:59N 48°52' W 122°46'0 0.0
2017-Oct-12 08:29N 48°52' W 122°46'1 2.2
2017-Oct-12 07:58N 48°51' W 122°45'2 4.0
2017-Oct-12 07:30N 48°49' W 122°44'1 0.7
2017-Oct-12 06:42N 48°49' W 122°43'0 0.0
2017-Oct-12 05:05N 48°49' W 122°43'0 0.1
2017-Oct-12 04:59N 48°49' W 122°43'0 0.0
2017-Oct-12 03:29N 48°49' W 122°43'0 0.0
2017-Oct-12 02:59N 48°49' W 122°43'0 0.1
2017-Oct-12 02:29N 48°49' W 122°43'0 0.1
2017-Oct-12 01:59N 48°49' W 122°43'0 0.0
2017-Oct-12 01:22N 48°49' W 122°43'0 0.0
2017-Oct-12 01:00N 48°49' W 122°43'0 0.0
2017-Oct-12 00:28N 48°49' W 122°43'0 0.0
2017-Oct-11 23:55N 48°49' W 122°43'0 0.0
2017-Oct-11 23:19N 48°49' W 122°43'0 0.1
2017-Oct-11 23:00N 48°49' W 122°43'0 0.0
2017-Oct-11 22:30N 48°49' W 122°43'0 0.0
2017-Oct-11 22:00N 48°49' W 122°43'0 0.0
2017-Oct-11 21:30N 48°49' W 122°43'0 0.0
2017-Oct-11 20:58N 48°49' W 122°43'1 1.1
2017-Oct-11 20:17N 48°50' W 122°43'1 2.7
2017-Oct-11 19:48N 48°48' W 122°44'310.5
2017-Oct-11 19:30N 48°45' W 122°45'611.6
2017-Oct-11 19:00N 48°40' W 122°43'611.5
2017-Oct-11 18:31N 48°34' W 122°45'611.9
2017-Oct-11 18:00N 48°28' W 122°44'611.8
2017-Oct-11 17:30N 48°23' W 122°49'25 1.4
2017-Oct-10 23:58N 48°45' W 122°30'0 0.0
2017-Oct-10 23:25N 48°45' W 122°30'0 0.0
2017-Oct-10 22:58N 48°45' W 122°30'0 0.0
2017-Oct-10 22:28N 48°45' W 122°30'0 0.0
2017-Oct-10 21:58N 48°45' W 122°30'0 0.0
2017-Oct-10 21:28N 48°45' W 122°30'0 0.0
2017-Oct-10 20:58N 48°45' W 122°30'0 0.0
2017-Oct-10 20:28N 48°45' W 122°30'0 0.0
2017-Oct-10 19:55N 48°45' W 122°30'0 0.0
2017-Oct-10 19:28N 48°45' W 122°30'0 0.0
2017-Oct-10 18:58N 48°45' W 122°30'0 0.0
2017-Oct-10 18:28N 48°45' W 122°30'0 0.0
2017-Oct-10 17:58N 48°45' W 122°30'0 0.0
2017-Oct-10 17:28N 48°45' W 122°30'0 0.0
2017-Oct-10 16:58N 48°45' W 122°30'0 0.0
2017-Oct-10 16:28N 48°45' W 122°30'0 0.0
2017-Oct-10 15:58N 48°45' W 122°30'0 0.0
2017-Oct-10 15:22N 48°45' W 122°30'0 0.0
2017-Oct-10 14:58N 48°45' W 122°30'0 0.0
2017-Oct-10 13:58N 48°45' W 122°30'0 0.0
2017-Oct-10 13:28N 48°45' W 122°30'0 0.0
2017-Oct-10 12:58N 48°45' W 122°30'0 0.0
2017-Oct-10 12:25N 48°45' W 122°30'0 0.0
2017-Oct-10 11:58N 48°45' W 122°30'0 0.0
2017-Oct-10 11:28N 48°45' W 122°30'0 0.0
2017-Oct-10 10:58N 48°45' W 122°30'0 0.0
2017-Oct-10 10:28N 48°45' W 122°30'0 0.0
2017-Oct-10 10:00N 48°45' W 122°30'0 0.0
2017-Oct-10 09:31N 48°45' W 122°30'0 0.0
2017-Oct-10 09:00N 48°45' W 122°30'0 0.0
2017-Oct-10 08:30N 48°45' W 122°30'0 0.0
2017-Oct-10 08:00N 48°45' W 122°30'0 0.0
2017-Oct-10 07:30N 48°45' W 122°30'0 0.0
2017-Oct-10 07:00N 48°45' W 122°30'0 0.0
2017-Oct-10 06:30N 48°45' W 122°30'0 0.0
2017-Oct-10 06:00N 48°45' W 122°30'0 0.0
2017-Oct-10 05:30N 48°45' W 122°30'0 0.0
2017-Oct-10 05:00N 48°45' W 122°30'0 0.0
2017-Oct-10 04:30N 48°45' W 122°30'0 0.0
2017-Oct-10 04:00N 48°45' W 122°30'0 0.0
2017-Oct-10 03:30N 48°45' W 122°30'0 0.0
2017-Oct-10 03:00N 48°45' W 122°30'0 0.0
2017-Oct-10 02:30N 48°45' W 122°30'0 0.1
2017-Oct-10 02:00N 48°45' W 122°30'0 0.0
2017-Oct-10 01:31N 48°45' W 122°30'0 0.1
2017-Oct-10 01:00N 48°45' W 122°30'0 0.0
2017-Oct-10 00:30N 48°45' W 122°30'0 0.0
2017-Oct-10 00:00N 48°45' W 122°30'0 0.0
2017-Oct-09 23:30N 48°45' W 122°30'0 0.0
2017-Oct-09 23:00N 48°45' W 122°30'0 0.0
2017-Oct-09 22:30N 48°45' W 122°30'0 0.0
2017-Oct-09 22:00N 48°45' W 122°30'0 0.0
2017-Oct-09 21:31N 48°45' W 122°30'5 9.6
2017-Oct-09 21:00N 48°40' W 122°33'511.0
2017-Oct-09 20:30N 48°36' W 122°38'5 9.6
2017-Oct-09 20:00N 48°32' W 122°41'5 9.5
2017-Oct-09 19:31N 48°28' W 122°44'510.4
2017-Oct-09 19:00N 48°24' W 122°50'910.8
2017-Oct-09 18:10N 48°18' W 123°01'310.8
2017-Oct-09 17:53N 48°17' W 123°05'410.6
2017-Oct-09 17:28N 48°15' W 123°10'710.7
2017-Oct-09 16:52N 48°11' W 123°18'410.7
2017-Oct-09 16:30N 48°08' W 123°23'2 4.6
2017-Oct-09 16:00N 48°08' W 123°26'0 0.9
2017-Oct-09 15:31N 48°08' W 123°26'0 0.0
2017-Oct-09 14:59N 48°08' W 123°26'0 0.0
2017-Oct-09 14:26N 48°08' W 123°26'0 0.0
2017-Oct-09 14:00N 48°08' W 123°26'0 0.0
2017-Oct-09 13:30N 48°08' W 123°26'0 0.0
2017-Oct-09 13:00N 48°08' W 123°26'0 0.0
2017-Oct-09 12:28N 48°08' W 123°26'0 0.0
2017-Oct-09 12:00N 48°08' W 123°26'0 0.0
2017-Oct-09 11:30N 48°08' W 123°26'0 0.0
2017-Oct-09 11:00N 48°08' W 123°26'0 0.0
2017-Oct-09 10:28N 48°08' W 123°26'0 0.0
2017-Oct-09 10:00N 48°08' W 123°26'3 6.3
2017-Oct-09 09:30N 48°09' W 123°22'611.2
2017-Oct-09 09:01N 48°13' W 123°16'611.0
2017-Oct-09 08:30N 48°16' W 123°09'611.6
2017-Oct-09 08:00N 48°19' W 123°01'511.2
2017-Oct-09 07:30N 48°22' W 122°54'611.8
2017-Oct-09 07:01N 48°25' W 122°47'713.4
2017-Oct-09 06:30N 48°31' W 122°41'5 9.6
2017-Oct-09 06:00N 48°31' W 122°34'0 0.7
2017-Oct-09 05:30N 48°31' W 122°34'0 0.7
2017-Oct-09 05:00N 48°31' W 122°34'0 0.5
2017-Oct-09 04:30N 48°31' W 122°34'0 1.0
2017-Oct-09 04:00N 48°31' W 122°35'0 0.9
2017-Oct-09 03:30N 48°31' W 122°35'2 3.7
2017-Oct-09 03:00N 48°31' W 122°38'4 8.1
2017-Oct-09 02:30N 48°29' W 122°43'510.7
2017-Oct-09 02:01N 48°25' W 122°48'510.2
2017-Oct-09 01:31N 48°22' W 122°54'710.6
2017-Oct-09 00:53N 48°18' W 123°02'410.2
2017-Oct-09 00:30N 48°16' W 123°07'710.0
2017-Oct-08 23:50N 48°12' W 123°15'410.7
2017-Oct-08 23:30N 48°10' W 123°20'5 9.3
2017-Oct-08 23:00N 48°08' W 123°26'1 1.0
2017-Oct-08 22:30N 48°08' W 123°25'3 5.9
2017-Oct-08 22:01N 48°08' W 123°21'713.0
2017-Oct-08 21:30N 48°13' W 123°13'713.5
2017-Oct-08 21:00N 48°17' W 123°06'713.4
2017-Oct-08 20:29N 48°21' W 122°57'613.2
2017-Oct-08 20:01N 48°24' W 122°49'612.6
2017-Oct-08 19:30N 48°30' W 122°44'612.9
2017-Oct-08 19:00N 48°36' W 122°45'612.1
2017-Oct-08 18:30N 48°42' W 122°44'612.6
2017-Oct-08 18:00N 48°49' W 122°44'1 2.0
2017-Oct-08 17:31N 48°50' W 122°43'1 0.7
2017-Oct-08 16:25N 48°49' W 122°43'0 0.0
2017-Oct-08 15:40N 48°49' W 122°43'0 0.2
2017-Oct-08 15:25N 48°49' W 122°43'0 0.0
2017-Oct-08 15:00N 48°49' W 122°43'0 0.0
2017-Oct-08 14:30N 48°49' W 122°43'2 2.8
2017-Oct-08 13:57N 48°50' W 122°45'2 3.0
2017-Oct-08 13:27N 48°52' W 122°46'0 0.5
2017-Oct-08 13:00N 48°52' W 122°46'1 1.1
2017-Oct-08 12:30N 48°51' W 122°45'3 1.7
2017-Oct-08 10:53N 48°49' W 122°43'0 0.0
2017-Oct-08 10:29N 48°49' W 122°43'0 0.0
2017-Oct-08 09:56N 48°49' W 122°43'0 0.0
2017-Oct-08 09:26N 48°49' W 122°43'0 0.0
2017-Oct-08 08:47N 48°49' W 122°43'0 0.0
2017-Oct-08 08:29N 48°49' W 122°43'0 0.0
2017-Oct-08 07:47N 48°49' W 122°43'0 0.0
2017-Oct-08 07:29N 48°49' W 122°43'0 0.1
2017-Oct-08 06:50N 48°49' W 122°43'0 0.0
2017-Oct-08 06:20N 48°49' W 122°43'0 0.0
2017-Oct-08 05:59N 48°49' W 122°43'0 0.0
2017-Oct-08 04:37N 48°49' W 122°43'0 0.0
2017-Oct-08 04:28N 48°49' W 122°43'1 1.4
2017-Oct-08 04:00N 48°50' W 122°43'0 0.1
2017-Oct-08 03:30N 48°49' W 122°43'1 2.9
2017-Oct-08 03:00N 48°48' W 122°44'4 7.9
2017-Oct-08 02:30N 48°44' W 122°46'611.3
2017-Oct-08 02:00N 48°39' W 122°44'510.4
2017-Oct-08 01:30N 48°34' W 122°45'510.6
2017-Oct-08 01:01N 48°28' W 122°45'611.3
2017-Oct-08 00:30N 48°24' W 122°49'713.8
2017-Oct-07 23:59N 48°20' W 122°58'713.4
2017-Oct-07 23:26N 48°16' W 123°08'1 2.8
2017-Oct-07 22:57N 48°15' W 123°10'511.8
2017-Oct-07 22:30N 48°12' W 123°16'611.9
2017-Oct-07 22:00N 48°08' W 123°23'2 4.1
2017-Oct-07 21:30N 48°08' W 123°26'0 0.5
2017-Oct-07 21:00N 48°08' W 123°26'0 0.5
2017-Oct-07 20:26N 48°08' W 123°26'0 0.0
2017-Oct-07 20:00N 48°08' W 123°26'0 0.0
2017-Oct-07 19:30N 48°08' W 123°26'0 0.1
2017-Oct-07 19:00N 48°08' W 123°26'0 0.6
2017-Oct-07 18:30N 48°08' W 123°26'1 1.9
2017-Oct-07 18:00N 48°08' W 123°25'1 1.1
2017-Oct-07 17:30N 48°08' W 123°24'0 0.6
2017-Oct-07 17:00N 48°08' W 123°24'4 8.3
2017-Oct-07 16:30N 48°09' W 123°18'611.3
2017-Oct-07 16:00N 48°12' W 123°11'611.1
2017-Oct-07 15:30N 48°12' W 123°02'612.8
2017-Oct-07 15:00N 48°12' W 122°53'1311.4
2017-Oct-07 13:53N 48°04' W 122°38'411.1
2017-Oct-07 13:30N 48°00' W 122°36'510.9
2017-Oct-07 13:00N 47°56' W 122°30'510.6
2017-Oct-07 12:30N 47°51' W 122°27'  

Dump ship's entire track history